Hovedside
METAR-TAF:

METAR-TAF

Lufthavner :

Hermiston Municipal Airport

Hermiston, Oregon, USA

breddegrad: 45-49-33N, lengdegrad: 119-15-40W, høyde over havet: 194 m

Gjeldene værobservasjon

Denne rapporten ble laget for 33 minutter siden, klokken 18:53 UTC
Flau vind
Temperatur 8°C
Luftfuktighet 53%
Trykk 1036 hPa
Sikt: 16.1 km
Skyfri himmel

METAR: KHRI 251853Z AUTO 00000KT 10SM CLR 08/M01 A3059 RMK AO2 SLP364 T00781011

Tid: 11:26 (19:26 UTC)


TAF: fraværende

Værobservasjoner og værvarsel for over 4000 flyplasser (METAR- og TAF-rapporter).

Tilgjengelige stasjoner er representert av de røde og gule prikkene på kartet.

Hold musepekeren over prikken for å se navnet på stasjonen.

Klikk så for å se værobservasjoner og -varsler.

For å forandre kartet kan du klikke på den grønne knappen med svart kryss for å zoome inn, på den grønne knappen med strek for å zoome ut, eller på de grønne pilene for å se tilstøtende kart.


METAR-TAF: